top of page

SAN GABRIEL MOUNTAIN DRILL FIRE

Updated: 7 days ago

DECEMBER 27th - JANUARY 31st, 2022

OPENED TO: UNIT MEMBERS, STUDENT MEMBERS, VATSIM VSO MEMBERS


STATUS:

SMOKE CHECK - COMPLETE

SIZE UP - COMPLETE ( SCROLL DOWN )

CONTAINMENT - 100% (12000 ACRES BURNED)

SOLO DROPS OPENED - CLOSED


LOCATION:

N34°19.16' W117°57.64'

bottom of a Canyon in the San Gabriel Mountains North East of LAX


FTA INFORMATION:

N34°19.16' W117°57.64'

5 MILE RADIUS

SFR - 10000 ft

FREQ: 125.525 CALL 5 MILES OUT

SOLO DROPS: OPEN


RESOURCES ATTACHED:

AS NEEDED CHECK IN TO DISPATCH OFFLINE


IRL RESOURCES:

N / A DRILL FIRE


ANY STUDENT OR TRAINING PILOT MAY JOIN


CONTACT DISPATCH 168.650 OF AIRCRAFT TYPE, CALLSIGN, FIRE RESPONDING TO, AND VFU NUMBER LOG HOURS WORKED IN THE HOUR LOG WHEN CHECKING OUT


---------------------------------------------------------------------------------------------------------------------------


SMOKE CHECK

DRILL


SAN GABRIEL MOUNTAIN DRILL FIRE SIZE UP

12/27/2022


- WILDLAND DRILL FIRE

-N34°19.16' W117°57.64'

- 1500 ACRES

- INITIAL ATTACK

- IC VFU01 - BRANDON CHEUNG | SAN GABRIEL MOUNTAIN DRILL FIRE

- KONT 272253Z 25010KT 10SM -RA BKN085 OVC100 17/07 A2996 RMK AO2 RAB12E31B48 SLP140 P0000 T01670067

- FTA FREQ: 125.525

- HAZARDS: MOUNTAINS AND POWERLINES

- RESOURCES REQUIRED

- 1x ARAT

- LATs

- VLATs (HVLATs)

- Type 2 Helis

- Type 1 Heli


OPS ENDED AT 0338Z 2/1/2023

bottom of page